Preview of NWS' New Version of Forecast
This preview is not operational and should not be used for support decisions.

Terminal Aerodrome Forecast (TAF)

Issued by National Weather Service (NWS)

                            
000
FTUS42 KMFL 270306 AAA
TAFMIA
TAF AMD
KMIA 270306Z 2703/2806 11015G25KT P6SM SHRA SCT020 BKN025 OVC080
      WS020/14040KT
     FM271000 14016G26KT P6SM SHRA SCT015 BKN035
     FM271500 17020G30KT P6SM VCTS BKN015CB OVC030
     FM280000 13015G25KT P6SM VCSH BKN025 OVC040=